Terminal Aerodrome Forecast
Issued by NWS

Home | Current Version | Previous Version | Text Only | Print | Product List | Glossary On
Versions: 1 2 3 4 5 6 7 8 9 10 11 12 13 14 15 16 17 18 19 20 21 22 23 24 25 26 27 28 29 30 31 32 33 34 35 36 37 38 39
000
FTUS45 KSLC 210536
TAFOGD
TAF
KOGD 210536Z 2106/2206 17007KT P6SM VCSH BKN080 BKN120
     FM211200 17009KT P6SM SCT080 BKN130
     FM211800 20010G16KT P6SM VCSH SCT070 BKN090
     FM220300 17009KT P6SM BKN100=

USA.gov is the U.S. government's official web portal to all federal, state and local government web resources and services.